Bluff Point, New York
Current Conditions -  °F | °C
As of 12:53 AM on Friday 28 Nov 2014 (Local Time) from KPEO Reporting Station
Overcast Overcast  
Wind Chill: 29°   Ceiling: 1900
Heat Index: 29°   Visibility: 10mi
Dew Point: 22°   Wind: 3mph
Humidity: 75%   Direction: NA
Pressure: 30.06"   Gusts: NA
Location:  42.58°N, 77.128°W
Report Text: KPEO 280553Z AUTO VRB03KT 10SM BKN019 OVC050 M02/M06 A3006 RMK AO2 SLP192 60000 T10171056 11006 21017 52003
Loading
Personal Weather Stations






























Interactive Weather Map New forecast layout! Learn more

10-Day Weather Forecast

Advertisements
Track Severe Weather on mobile